sensor_id;sensor_type;location;lat;lon;timestamp;P1;durP1;ratioP1;P2;durP2;ratioP2
28074;SDS011;15385;51.088;6.572;2023-04-06T00:02:21;17.73;;;9.05;;
28074;SDS011;15385;51.088;6.572;2023-04-06T00:04:51;16.17;;;9.20;;
28074;SDS011;15385;51.088;6.572;2023-04-06T00:07:22;14.10;;;8.98;;
28074;SDS011;15385;51.088;6.572;2023-04-06T00:12:23;17.70;;;9.37;;
28074;SDS011;15385;51.088;6.572;2023-04-06T00:17:25;15.75;;;8.95;;
28074;SDS011;15385;51.088;6.572;2023-04-06T00:22:26;13.85;;;9.10;;
28074;SDS011;15385;51.088;6.572;2023-04-06T00:24:57;16.17;;;10.40;;
28074;SDS011;15385;51.088;6.572;2023-04-06T00:29:58;17.77;;;9.37;;
28074;SDS011;15385;51.088;6.572;2023-04-06T00:34:59;16.33;;;9.20;;
28074;SDS011;15385;51.088;6.572;2023-04-06T00:37:32;15.63;;;9.02;;
28074;SDS011;15385;51.088;6.572;2023-04-06T00:40:03;17.73;;;9.27;;
28074;SDS011;15385;51.088;6.572;2023-04-06T00:45:04;18.23;;;9.20;;
28074;SDS011;15385;51.088;6.572;2023-04-06T00:47:35;15.48;;;9.52;;
28074;SDS011;15385;51.088;6.572;2023-04-06T00:50:06;16.13;;;9.32;;
28074;SDS011;15385;51.088;6.572;2023-04-06T00:52:37;17.42;;;9.85;;
28074;SDS011;15385;51.088;6.572;2023-04-06T00:55:08;14.27;;;9.18;;
28074;SDS011;15385;51.088;6.572;2023-04-06T00:57:38;16.42;;;9.77;;
28074;SDS011;15385;51.088;6.572;2023-04-06T01:02:40;13.80;;;9.55;;
28074;SDS011;15385;51.088;6.572;2023-04-06T01:05:11;15.70;;;9.65;;
28074;SDS011;15385;51.088;6.572;2023-04-06T01:07:41;16.83;;;10.68;;
28074;SDS011;15385;51.088;6.572;2023-04-06T01:12:52;18.65;;;10.50;;
28074;SDS011;15385;51.088;6.572;2023-04-06T01:15:23;19.27;;;10.70;;
28074;SDS011;15385;51.088;6.572;2023-04-06T01:17:54;16.27;;;10.48;;
28074;SDS011;15385;51.088;6.572;2023-04-06T01:20:25;19.23;;;10.77;;
28074;SDS011;15385;51.088;6.572;2023-04-06T01:22:56;20.70;;;11.10;;
28074;SDS011;15385;51.088;6.572;2023-04-06T01:27:57;20.27;;;12.40;;
28074;SDS011;15385;51.088;6.572;2023-04-06T01:30:28;21.45;;;11.77;;
28074;SDS011;15385;51.088;6.572;2023-04-06T01:35:29;19.73;;;12.05;;
28074;SDS011;15385;51.088;6.572;2023-04-06T01:38:00;22.67;;;12.57;;
28074;SDS011;15385;51.088;6.572;2023-04-06T01:40:31;15.52;;;9.82;;
28074;SDS011;15385;51.088;6.572;2023-04-06T01:43:02;17.85;;;9.82;;
28074;SDS011;15385;51.088;6.572;2023-04-06T01:45:32;17.15;;;10.18;;
28074;SDS011;15385;51.088;6.572;2023-04-06T01:48:03;19.83;;;10.40;;
28074;SDS011;15385;51.088;6.572;2023-04-06T01:50:34;14.45;;;9.98;;
28074;SDS011;15385;51.088;6.572;2023-04-06T01:53:05;14.88;;;10.25;;
28074;SDS011;15385;51.088;6.572;2023-04-06T01:55:35;17.50;;;10.65;;
28074;SDS011;15385;51.088;6.572;2023-04-06T01:58:06;19.05;;;11.13;;
28074;SDS011;15385;51.088;6.572;2023-04-06T02:03:07;22.30;;;10.87;;
28074;SDS011;15385;51.088;6.572;2023-04-06T02:08:08;19.77;;;11.20;;
28074;SDS011;15385;51.088;6.572;2023-04-06T02:13:10;19.13;;;11.20;;
28074;SDS011;15385;51.088;6.572;2023-04-06T02:15:40;18.40;;;11.52;;
28074;SDS011;15385;51.088;6.572;2023-04-06T02:18:11;21.13;;;12.23;;
28074;SDS011;15385;51.088;6.572;2023-04-06T02:20:42;23.80;;;11.80;;
28074;SDS011;15385;51.088;6.572;2023-04-06T02:23:12;21.35;;;11.88;;
28074;SDS011;15385;51.088;6.572;2023-04-06T02:25:43;21.52;;;12.60;;
28074;SDS011;15385;51.088;6.572;2023-04-06T02:28:13;21.60;;;13.15;;
28074;SDS011;15385;51.088;6.572;2023-04-06T02:30:44;20.60;;;12.18;;
28074;SDS011;15385;51.088;6.572;2023-04-06T02:33:16;22.30;;;12.60;;
28074;SDS011;15385;51.088;6.572;2023-04-06T02:35:47;21.98;;;12.68;;
28074;SDS011;15385;51.088;6.572;2023-04-06T02:38:17;19.65;;;12.25;;
28074;SDS011;15385;51.088;6.572;2023-04-06T02:40:48;20.27;;;12.23;;
28074;SDS011;15385;51.088;6.572;2023-04-06T02:43:19;22.85;;;12.43;;
28074;SDS011;15385;51.088;6.572;2023-04-06T02:45:49;19.25;;;11.75;;
28074;SDS011;15385;51.088;6.572;2023-04-06T02:48:20;21.40;;;12.70;;
28074;SDS011;15385;51.088;6.572;2023-04-06T02:50:50;22.50;;;11.55;;
28074;SDS011;15385;51.088;6.572;2023-04-06T02:53:21;17.45;;;11.63;;
28074;SDS011;15385;51.088;6.572;2023-04-06T02:55:52;22.70;;;12.07;;
28074;SDS011;15385;51.088;6.572;2023-04-06T02:58:22;20.83;;;12.20;;
28074;SDS011;15385;51.088;6.572;2023-04-06T03:00:53;20.20;;;11.82;;
28074;SDS011;15385;51.088;6.572;2023-04-06T03:03:24;18.40;;;11.40;;
28074;SDS011;15385;51.088;6.572;2023-04-06T03:05:55;19.80;;;12.38;;
28074;SDS011;15385;51.088;6.572;2023-04-06T03:08:28;21.30;;;11.35;;
28074;SDS011;15385;51.088;6.572;2023-04-06T03:10:59;22.92;;;13.00;;
28074;SDS011;15385;51.088;6.572;2023-04-06T03:16:00;21.50;;;11.70;;
28074;SDS011;15385;51.088;6.572;2023-04-06T03:18:31;22.10;;;11.43;;
28074;SDS011;15385;51.088;6.572;2023-04-06T03:21:02;24.25;;;13.10;;
28074;SDS011;15385;51.088;6.572;2023-04-06T03:23:33;17.58;;;11.57;;
28074;SDS011;15385;51.088;6.572;2023-04-06T03:26:03;19.15;;;11.52;;
28074;SDS011;15385;51.088;6.572;2023-04-06T03:31:04;21.27;;;12.75;;
28074;SDS011;15385;51.088;6.572;2023-04-06T03:33:35;20.30;;;12.45;;
28074;SDS011;15385;51.088;6.572;2023-04-06T03:36:06;19.05;;;12.13;;
28074;SDS011;15385;51.088;6.572;2023-04-06T03:38:37;21.58;;;12.82;;
28074;SDS011;15385;51.088;6.572;2023-04-06T03:43:38;19.13;;;11.13;;
28074;SDS011;15385;51.088;6.572;2023-04-06T03:46:08;23.17;;;11.82;;
28074;SDS011;15385;51.088;6.572;2023-04-06T03:48:39;20.88;;;12.40;;
28074;SDS011;15385;51.088;6.572;2023-04-06T03:51:10;18.98;;;12.40;;
28074;SDS011;15385;51.088;6.572;2023-04-06T03:53:40;20.10;;;11.95;;
28074;SDS011;15385;51.088;6.572;2023-04-06T03:56:11;20.90;;;12.45;;
28074;SDS011;15385;51.088;6.572;2023-04-06T03:58:42;25.20;;;13.27;;
28074;SDS011;15385;51.088;6.572;2023-04-06T04:01:14;22.92;;;12.32;;
28074;SDS011;15385;51.088;6.572;2023-04-06T04:03:45;21.50;;;12.50;;
28074;SDS011;15385;51.088;6.572;2023-04-06T04:06:16;22.90;;;13.63;;
28074;SDS011;15385;51.088;6.572;2023-04-06T04:08:46;21.27;;;13.05;;
28074;SDS011;15385;51.088;6.572;2023-04-06T04:11:17;20.15;;;12.68;;
28074;SDS011;15385;51.088;6.572;2023-04-06T04:13:48;25.55;;;13.90;;
28074;SDS011;15385;51.088;6.572;2023-04-06T04:16:18;22.48;;;12.18;;
28074;SDS011;15385;51.088;6.572;2023-04-06T04:18:49;27.30;;;12.80;;
28074;SDS011;15385;51.088;6.572;2023-04-06T04:21:20;23.52;;;12.00;;
28074;SDS011;15385;51.088;6.572;2023-04-06T04:23:51;22.98;;;12.70;;
28074;SDS011;15385;51.088;6.572;2023-04-06T04:26:22;17.48;;;11.32;;
28074;SDS011;15385;51.088;6.572;2023-04-06T04:28:53;24.33;;;12.15;;
28074;SDS011;15385;51.088;6.572;2023-04-06T04:31:23;27.73;;;12.90;;
28074;SDS011;15385;51.088;6.572;2023-04-06T04:33:54;23.70;;;11.70;;
28074;SDS011;15385;51.088;6.572;2023-04-06T04:36:25;24.27;;;12.80;;
28074;SDS011;15385;51.088;6.572;2023-04-06T04:38:56;22.05;;;12.65;;
28074;SDS011;15385;51.088;6.572;2023-04-06T04:41:27;19.02;;;12.27;;
28074;SDS011;15385;51.088;6.572;2023-04-06T04:43:57;37.75;;;15.25;;
28074;SDS011;15385;51.088;6.572;2023-04-06T04:46:28;40.25;;;15.55;;
28074;SDS011;15385;51.088;6.572;2023-04-06T04:48:58;32.88;;;13.90;;
28074;SDS011;15385;51.088;6.572;2023-04-06T04:51:29;31.15;;;13.60;;
28074;SDS011;15385;51.088;6.572;2023-04-06T04:54:01;33.47;;;13.13;;
28074;SDS011;15385;51.088;6.572;2023-04-06T04:56:31;30.23;;;12.60;;
28074;SDS011;15385;51.088;6.572;2023-04-06T04:59:02;22.83;;;11.30;;
28074;SDS011;15385;51.088;6.572;2023-04-06T05:01:33;20.80;;;11.65;;
28074;SDS011;15385;51.088;6.572;2023-04-06T05:04:03;19.25;;;11.55;;
28074;SDS011;15385;51.088;6.572;2023-04-06T05:06:34;19.42;;;12.07;;
28074;SDS011;15385;51.088;6.572;2023-04-06T05:09:05;23.00;;;12.25;;
28074;SDS011;15385;51.088;6.572;2023-04-06T05:11:35;22.80;;;12.32;;
28074;SDS011;15385;51.088;6.572;2023-04-06T05:16:37;19.20;;;11.97;;
28074;SDS011;15385;51.088;6.572;2023-04-06T05:19:07;18.48;;;11.43;;
28074;SDS011;15385;51.088;6.572;2023-04-06T05:21:38;18.05;;;11.02;;
28074;SDS011;15385;51.088;6.572;2023-04-06T05:24:09;19.65;;;11.80;;
28074;SDS011;15385;51.088;6.572;2023-04-06T05:26:40;17.00;;;11.45;;
28074;SDS011;15385;51.088;6.572;2023-04-06T05:29:11;22.10;;;11.32;;
28074;SDS011;15385;51.088;6.572;2023-04-06T05:31:42;26.80;;;12.07;;
28074;SDS011;15385;51.088;6.572;2023-04-06T05:34:13;21.33;;;10.40;;
28074;SDS011;15385;51.088;6.572;2023-04-06T05:36:43;19.80;;;11.05;;
28074;SDS011;15385;51.088;6.572;2023-04-06T05:39:14;17.33;;;10.23;;
28074;SDS011;15385;51.088;6.572;2023-04-06T05:41:45;19.10;;;11.02;;
28074;SDS011;15385;51.088;6.572;2023-04-06T05:44:16;20.48;;;11.98;;
28074;SDS011;15385;51.088;6.572;2023-04-06T05:49:17;17.57;;;10.77;;
28074;SDS011;15385;51.088;6.572;2023-04-06T05:54:18;19.63;;;11.73;;
28074;SDS011;15385;51.088;6.572;2023-04-06T05:56:48;24.45;;;12.55;;
28074;SDS011;15385;51.088;6.572;2023-04-06T05:59:19;24.92;;;12.90;;
28074;SDS011;15385;51.088;6.572;2023-04-06T06:01:50;22.98;;;13.25;;
28074;SDS011;15385;51.088;6.572;2023-04-06T06:04:21;24.38;;;13.50;;
28074;SDS011;15385;51.088;6.572;2023-04-06T06:06:52;21.17;;;11.60;;
28074;SDS011;15385;51.088;6.572;2023-04-06T06:09:22;27.17;;;12.77;;
28074;SDS011;15385;51.088;6.572;2023-04-06T06:11:53;23.92;;;11.85;;
28074;SDS011;15385;51.088;6.572;2023-04-06T06:14:23;28.73;;;13.18;;
28074;SDS011;15385;51.088;6.572;2023-04-06T06:16:54;27.08;;;11.80;;
28074;SDS011;15385;51.088;6.572;2023-04-06T06:21:55;24.20;;;11.67;;
28074;SDS011;15385;51.088;6.572;2023-04-06T06:24:26;19.85;;;11.00;;
28074;SDS011;15385;51.088;6.572;2023-04-06T06:26:57;20.95;;;11.43;;
28074;SDS011;15385;51.088;6.572;2023-04-06T06:29:28;18.17;;;10.60;;
28074;SDS011;15385;51.088;6.572;2023-04-06T06:31:59;22.25;;;11.02;;
28074;SDS011;15385;51.088;6.572;2023-04-06T06:34:30;20.40;;;11.20;;
28074;SDS011;15385;51.088;6.572;2023-04-06T06:37:00;23.20;;;11.52;;
28074;SDS011;15385;51.088;6.572;2023-04-06T06:39:32;22.80;;;11.48;;
28074;SDS011;15385;51.088;6.572;2023-04-06T06:42:02;18.98;;;11.68;;
28074;SDS011;15385;51.088;6.572;2023-04-06T06:47:04;28.55;;;14.02;;
28074;SDS011;15385;51.088;6.572;2023-04-06T06:52:05;24.50;;;13.40;;
28074;SDS011;15385;51.088;6.572;2023-04-06T06:54:37;25.98;;;13.93;;
28074;SDS011;15385;51.088;6.572;2023-04-06T06:57:07;29.95;;;13.35;;
28074;SDS011;15385;51.088;6.572;2023-04-06T07:02:09;19.38;;;11.10;;
28074;SDS011;15385;51.088;6.572;2023-04-06T07:04:39;21.67;;;12.25;;
28074;SDS011;15385;51.088;6.572;2023-04-06T07:07:10;26.08;;;11.63;;
28074;SDS011;15385;51.088;6.572;2023-04-06T07:09:41;20.05;;;10.98;;
28074;SDS011;15385;51.088;6.572;2023-04-06T07:14:42;19.90;;;10.25;;
28074;SDS011;15385;51.088;6.572;2023-04-06T07:19:43;18.13;;;10.13;;
28074;SDS011;15385;51.088;6.572;2023-04-06T07:22:15;18.38;;;10.82;;
28074;SDS011;15385;51.088;6.572;2023-04-06T07:27:16;14.97;;;10.70;;
28074;SDS011;15385;51.088;6.572;2023-04-06T07:29:48;18.70;;;10.50;;
28074;SDS011;15385;51.088;6.572;2023-04-06T07:34:49;17.80;;;10.77;;
28074;SDS011;15385;51.088;6.572;2023-04-06T07:37:20;17.75;;;11.38;;
28074;SDS011;15385;51.088;6.572;2023-04-06T07:39:51;20.48;;;10.90;;
28074;SDS011;15385;51.088;6.572;2023-04-06T07:44:52;18.77;;;10.80;;
28074;SDS011;15385;51.088;6.572;2023-04-06T07:49:54;15.77;;;10.37;;
28074;SDS011;15385;51.088;6.572;2023-04-06T07:52:28;19.55;;;11.18;;
28074;SDS011;15385;51.088;6.572;2023-04-06T07:57:29;21.73;;;12.10;;
28074;SDS011;15385;51.088;6.572;2023-04-06T08:00:00;21.02;;;11.07;;
28074;SDS011;15385;51.088;6.572;2023-04-06T08:05:01;18.67;;;9.85;;
28074;SDS011;15385;51.088;6.572;2023-04-06T08:07:32;20.55;;;11.32;;
28074;SDS011;15385;51.088;6.572;2023-04-06T08:12:34;20.98;;;11.57;;
28074;SDS011;15385;51.088;6.572;2023-04-06T08:15:05;20.10;;;12.00;;
28074;SDS011;15385;51.088;6.572;2023-04-06T08:20:06;23.45;;;11.48;;
28074;SDS011;15385;51.088;6.572;2023-04-06T08:22:37;20.73;;;12.07;;
28074;SDS011;15385;51.088;6.572;2023-04-06T08:25:08;18.45;;;10.98;;
28074;SDS011;15385;51.088;6.572;2023-04-06T08:30:09;22.80;;;11.67;;
28074;SDS011;15385;51.088;6.572;2023-04-06T08:35:11;18.85;;;11.32;;
28074;SDS011;15385;51.088;6.572;2023-04-06T08:37:42;20.23;;;11.35;;
28074;SDS011;15385;51.088;6.572;2023-04-06T08:40:12;17.20;;;10.02;;
28074;SDS011;15385;51.088;6.572;2023-04-06T08:45:16;17.42;;;10.38;;
28074;SDS011;15385;51.088;6.572;2023-04-06T08:47:51;17.30;;;11.23;;
28074;SDS011;15385;51.088;6.572;2023-04-06T08:50:22;18.40;;;11.30;;
28074;SDS011;15385;51.088;6.572;2023-04-06T08:52:54;21.60;;;12.35;;
28074;SDS011;15385;51.088;6.572;2023-04-06T08:55:26;20.48;;;11.95;;
28074;SDS011;15385;51.088;6.572;2023-04-06T08:57:57;18.88;;;11.70;;
28074;SDS011;15385;51.088;6.572;2023-04-06T09:00:29;20.55;;;11.80;;
28074;SDS011;15385;51.088;6.572;2023-04-06T09:03:00;21.88;;;12.40;;
28074;SDS011;15385;51.088;6.572;2023-04-06T09:05:31;22.65;;;11.95;;
28074;SDS011;15385;51.088;6.572;2023-04-06T09:10:32;21.90;;;12.27;;
28074;SDS011;15385;51.088;6.572;2023-04-06T09:13:05;21.90;;;13.50;;
28074;SDS011;15385;51.088;6.572;2023-04-06T09:15:36;20.92;;;12.05;;
28074;SDS011;15385;51.088;6.572;2023-04-06T09:18:07;17.98;;;12.23;;
28074;SDS011;15385;51.088;6.572;2023-04-06T09:23:18;21.13;;;12.07;;
28074;SDS011;15385;51.088;6.572;2023-04-06T09:25:49;21.50;;;12.23;;
28074;SDS011;15385;51.088;6.572;2023-04-06T09:28:20;18.20;;;11.93;;
28074;SDS011;15385;51.088;6.572;2023-04-06T09:30:50;21.02;;;11.82;;
28074;SDS011;15385;51.088;6.572;2023-04-06T09:35:52;19.92;;;11.23;;
28074;SDS011;15385;51.088;6.572;2023-04-06T09:38:23;19.70;;;11.45;;
28074;SDS011;15385;51.088;6.572;2023-04-06T09:40:53;23.45;;;12.10;;
28074;SDS011;15385;51.088;6.572;2023-04-06T09:45:56;16.50;;;11.15;;
28074;SDS011;15385;51.088;6.572;2023-04-06T09:48:27;19.83;;;12.30;;
28074;SDS011;15385;51.088;6.572;2023-04-06T09:51:02;22.45;;;12.15;;
28074;SDS011;15385;51.088;6.572;2023-04-06T09:53:35;20.23;;;12.02;;
28074;SDS011;15385;51.088;6.572;2023-04-06T09:56:11;26.20;;;11.90;;
28074;SDS011;15385;51.088;6.572;2023-04-06T09:58:46;21.88;;;11.90;;
28074;SDS011;15385;51.088;6.572;2023-04-06T10:01:19;21.13;;;12.02;;
28074;SDS011;15385;51.088;6.572;2023-04-06T10:06:53;22.67;;;11.90;;
28074;SDS011;15385;51.088;6.572;2023-04-06T10:09:27;19.58;;;11.38;;
28074;SDS011;15385;51.088;6.572;2023-04-06T10:12:05;17.80;;;10.35;;
28074;SDS011;15385;51.088;6.572;2023-04-06T10:14:36;19.73;;;10.65;;
28074;SDS011;15385;51.088;6.572;2023-04-06T10:17:07;18.70;;;10.57;;
28074;SDS011;15385;51.088;6.572;2023-04-06T10:22:08;19.80;;;11.13;;
28074;SDS011;15385;51.088;6.572;2023-04-06T10:24:42;21.45;;;10.60;;
28074;SDS011;15385;51.088;6.572;2023-04-06T10:27:13;29.00;;;11.57;;
28074;SDS011;15385;51.088;6.572;2023-04-06T10:32:18;18.42;;;10.70;;
28074;SDS011;15385;51.088;6.572;2023-04-06T10:34:49;21.40;;;11.70;;
28074;SDS011;15385;51.088;6.572;2023-04-06T10:37:20;19.90;;;11.68;;
28074;SDS011;15385;51.088;6.572;2023-04-06T10:39:54;17.65;;;10.65;;
28074;SDS011;15385;51.088;6.572;2023-04-06T10:42:25;23.23;;;11.25;;
28074;SDS011;15385;51.088;6.572;2023-04-06T10:45:07;22.70;;;11.77;;
28074;SDS011;15385;51.088;6.572;2023-04-06T10:47:54;21.02;;;11.40;;
28074;SDS011;15385;51.088;6.572;2023-04-06T10:50:25;18.33;;;10.68;;
28074;SDS011;15385;51.088;6.572;2023-04-06T10:53:02;19.73;;;10.85;;
28074;SDS011;15385;51.088;6.572;2023-04-06T10:55:33;22.95;;;11.32;;
28074;SDS011;15385;51.088;6.572;2023-04-06T10:58:07;20.50;;;11.10;;
28074;SDS011;15385;51.088;6.572;2023-04-06T11:00:44;21.08;;;10.95;;
28074;SDS011;15385;51.088;6.572;2023-04-06T11:03:15;24.73;;;11.75;;
28074;SDS011;15385;51.088;6.572;2023-04-06T11:05:47;20.35;;;12.07;;
28074;SDS011;15385;51.088;6.572;2023-04-06T11:08:52;20.75;;;12.35;;
28074;SDS011;15385;51.088;6.572;2023-04-06T11:11:16;21.27;;;11.25;;
28074;SDS011;15385;51.088;6.572;2023-04-06T11:13:50;20.77;;;11.52;;
28074;SDS011;15385;51.088;6.572;2023-04-06T11:16:31;19.95;;;11.10;;
28074;SDS011;15385;51.088;6.572;2023-04-06T11:19:03;18.60;;;10.63;;
28074;SDS011;15385;51.088;6.572;2023-04-06T11:21:40;20.55;;;10.57;;
28074;SDS011;15385;51.088;6.572;2023-04-06T11:24:17;21.83;;;11.95;;
28074;SDS011;15385;51.088;6.572;2023-04-06T11:29:27;17.88;;;10.43;;
28074;SDS011;15385;51.088;6.572;2023-04-06T11:32:04;20.92;;;11.23;;
28074;SDS011;15385;51.088;6.572;2023-04-06T11:34:37;19.63;;;11.05;;
28074;SDS011;15385;51.088;6.572;2023-04-06T11:37:10;20.90;;;11.07;;
28074;SDS011;15385;51.088;6.572;2023-04-06T11:39:43;23.13;;;11.57;;
28074;SDS011;15385;51.088;6.572;2023-04-06T11:42:27;23.60;;;13.60;;
28074;SDS011;15385;51.088;6.572;2023-04-06T11:44:59;25.20;;;12.00;;
28074;SDS011;15385;51.088;6.572;2023-04-06T11:47:34;20.02;;;9.57;;
28074;SDS011;15385;51.088;6.572;2023-04-06T11:50:06;13.60;;;8.48;;
28074;SDS011;15385;51.088;6.572;2023-04-06T11:52:39;14.88;;;7.93;;
28074;SDS011;15385;51.088;6.572;2023-04-06T11:55:14;14.25;;;9.27;;
28074;SDS011;15385;51.088;6.572;2023-04-06T11:57:46;13.57;;;8.93;;
28074;SDS011;15385;51.088;6.572;2023-04-06T12:00:17;14.57;;;8.57;;
28074;SDS011;15385;51.088;6.572;2023-04-06T12:02:48;13.25;;;8.75;;
28074;SDS011;15385;51.088;6.572;2023-04-06T12:05:19;18.58;;;8.93;;
28074;SDS011;15385;51.088;6.572;2023-04-06T12:07:50;16.95;;;9.45;;
28074;SDS011;15385;51.088;6.572;2023-04-06T12:10:21;14.02;;;9.20;;
28074;SDS011;15385;51.088;6.572;2023-04-06T12:12:51;12.45;;;7.75;;
28074;SDS011;15385;51.088;6.572;2023-04-06T12:15:22;12.10;;;7.60;;
28074;SDS011;15385;51.088;6.572;2023-04-06T12:17:53;11.23;;;7.70;;
28074;SDS011;15385;51.088;6.572;2023-04-06T12:20:23;12.63;;;7.15;;
28074;SDS011;15385;51.088;6.572;2023-04-06T12:22:54;11.65;;;7.45;;
28074;SDS011;15385;51.088;6.572;2023-04-06T12:25:25;11.65;;;6.80;;
28074;SDS011;15385;51.088;6.572;2023-04-06T12:27:55;11.70;;;8.18;;
28074;SDS011;15385;51.088;6.572;2023-04-06T12:30:26;16.45;;;7.97;;
28074;SDS011;15385;51.088;6.572;2023-04-06T12:32:57;20.50;;;8.35;;
28074;SDS011;15385;51.088;6.572;2023-04-06T12:35:27;17.85;;;7.63;;
28074;SDS011;15385;51.088;6.572;2023-04-06T12:37:58;13.57;;;7.80;;
28074;SDS011;15385;51.088;6.572;2023-04-06T12:40:29;12.13;;;7.25;;
28074;SDS011;15385;51.088;6.572;2023-04-06T12:42:59;12.30;;;8.40;;
28074;SDS011;15385;51.088;6.572;2023-04-06T12:45:30;11.27;;;7.15;;
28074;SDS011;15385;51.088;6.572;2023-04-06T12:48:01;16.45;;;8.02;;
28074;SDS011;15385;51.088;6.572;2023-04-06T12:50:32;11.80;;;7.50;;
28074;SDS011;15385;51.088;6.572;2023-04-06T12:53:03;14.25;;;7.95;;
28074;SDS011;15385;51.088;6.572;2023-04-06T12:55:33;11.27;;;6.68;;
28074;SDS011;15385;51.088;6.572;2023-04-06T12:58:04;10.27;;;7.00;;
28074;SDS011;15385;51.088;6.572;2023-04-06T13:00:34;8.55;;;5.30;;
28074;SDS011;15385;51.088;6.572;2023-04-06T13:03:05;7.03;;;5.30;;
28074;SDS011;15385;51.088;6.572;2023-04-06T13:05:37;9.27;;;5.18;;
28074;SDS011;15385;51.088;6.572;2023-04-06T13:08:14;9.73;;;5.50;;
28074;SDS011;15385;51.088;6.572;2023-04-06T13:10:46;13.30;;;6.22;;
28074;SDS011;15385;51.088;6.572;2023-04-06T13:13:27;9.57;;;6.45;;
28074;SDS011;15385;51.088;6.572;2023-04-06T13:16:00;7.72;;;6.13;;
28074;SDS011;15385;51.088;6.572;2023-04-06T13:18:32;10.57;;;5.95;;
28074;SDS011;15385;51.088;6.572;2023-04-06T13:21:04;9.60;;;7.03;;
28074;SDS011;15385;51.088;6.572;2023-04-06T13:23:36;14.93;;;7.32;;
28074;SDS011;15385;51.088;6.572;2023-04-06T13:26:06;11.88;;;7.07;;
28074;SDS011;15385;51.088;6.572;2023-04-06T13:28:37;10.82;;;6.82;;
28074;SDS011;15385;51.088;6.572;2023-04-06T13:31:08;16.27;;;7.60;;
28074;SDS011;15385;51.088;6.572;2023-04-06T13:33:39;10.30;;;6.88;;
28074;SDS011;15385;51.088;6.572;2023-04-06T13:38:41;11.98;;;7.00;;
28074;SDS011;15385;51.088;6.572;2023-04-06T13:43:50;11.82;;;7.22;;
28074;SDS011;15385;51.088;6.572;2023-04-06T13:48:53;12.90;;;7.00;;
28074;SDS011;15385;51.088;6.572;2023-04-06T13:53:56;12.38;;;8.40;;
28074;SDS011;15385;51.088;6.572;2023-04-06T13:56:27;14.43;;;7.97;;
28074;SDS011;15385;51.088;6.572;2023-04-06T13:58:57;13.32;;;8.75;;
28074;SDS011;15385;51.088;6.572;2023-04-06T14:01:28;13.38;;;7.22;;
28074;SDS011;15385;51.088;6.572;2023-04-06T14:03:59;12.07;;;7.45;;
28074;SDS011;15385;51.088;6.572;2023-04-06T14:06:29;12.73;;;7.57;;
28074;SDS011;15385;51.088;6.572;2023-04-06T14:11:31;13.73;;;8.17;;
28074;SDS011;15385;51.088;6.572;2023-04-06T14:14:01;12.95;;;7.88;;
28074;SDS011;15385;51.088;6.572;2023-04-06T14:16:32;13.73;;;8.60;;
28074;SDS011;15385;51.088;6.572;2023-04-06T14:19:03;13.20;;;9.05;;
28074;SDS011;15385;51.088;6.572;2023-04-06T14:21:33;14.05;;;8.30;;
28074;SDS011;15385;51.088;6.572;2023-04-06T14:26:35;13.15;;;8.60;;
28074;SDS011;15385;51.088;6.572;2023-04-06T14:29:07;14.52;;;9.32;;
28074;SDS011;15385;51.088;6.572;2023-04-06T14:31:39;16.65;;;9.43;;
28074;SDS011;15385;51.088;6.572;2023-04-06T14:36:40;17.75;;;8.38;;
28074;SDS011;15385;51.088;6.572;2023-04-06T14:41:42;13.27;;;8.30;;
28074;SDS011;15385;51.088;6.572;2023-04-06T14:44:13;12.90;;;8.30;;
28074;SDS011;15385;51.088;6.572;2023-04-06T14:46:46;12.18;;;7.70;;
28074;SDS011;15385;51.088;6.572;2023-04-06T14:51:47;11.17;;;7.73;;
28074;SDS011;15385;51.088;6.572;2023-04-06T14:54:18;14.38;;;8.15;;
28074;SDS011;15385;51.088;6.572;2023-04-06T14:56:49;12.32;;;7.28;;
28074;SDS011;15385;51.088;6.572;2023-04-06T14:59:19;12.60;;;7.55;;
28074;SDS011;15385;51.088;6.572;2023-04-06T15:01:50;13.75;;;7.80;;
28074;SDS011;15385;51.088;6.572;2023-04-06T15:06:51;11.70;;;7.00;;
28074;SDS011;15385;51.088;6.572;2023-04-06T15:11:52;11.93;;;7.70;;
28074;SDS011;15385;51.088;6.572;2023-04-06T15:14:23;10.45;;;6.93;;
28074;SDS011;15385;51.088;6.572;2023-04-06T15:16:53;12.35;;;7.53;;
28074;SDS011;15385;51.088;6.572;2023-04-06T15:19:24;12.32;;;7.57;;
28074;SDS011;15385;51.088;6.572;2023-04-06T15:21:55;13.63;;;8.27;;
28074;SDS011;15385;51.088;6.572;2023-04-06T15:24:25;14.77;;;8.02;;
28074;SDS011;15385;51.088;6.572;2023-04-06T15:26:56;12.25;;;7.57;;
28074;SDS011;15385;51.088;6.572;2023-04-06T15:29:26;10.82;;;7.07;;
28074;SDS011;15385;51.088;6.572;2023-04-06T15:34:30;11.17;;;7.77;;
28074;SDS011;15385;51.088;6.572;2023-04-06T15:37:02;11.50;;;8.05;;
28074;SDS011;15385;51.088;6.572;2023-04-06T15:39:34;13.50;;;8.68;;
28074;SDS011;15385;51.088;6.572;2023-04-06T15:42:06;10.85;;;7.97;;
28074;SDS011;15385;51.088;6.572;2023-04-06T15:44:37;14.82;;;8.45;;
28074;SDS011;15385;51.088;6.572;2023-04-06T15:47:07;13.63;;;8.27;;
28074;SDS011;15385;51.088;6.572;2023-04-06T15:49:38;14.55;;;8.63;;
28074;SDS011;15385;51.088;6.572;2023-04-06T15:52:08;13.38;;;8.30;;
28074;SDS011;15385;51.088;6.572;2023-04-06T15:54:39;15.95;;;8.68;;
28074;SDS011;15385;51.088;6.572;2023-04-06T15:57:10;14.23;;;8.20;;
28074;SDS011;15385;51.088;6.572;2023-04-06T15:59:40;14.23;;;9.30;;
28074;SDS011;15385;51.088;6.572;2023-04-06T16:02:11;16.88;;;9.43;;
28074;SDS011;15385;51.088;6.572;2023-04-06T16:07:12;14.23;;;9.03;;
28074;SDS011;15385;51.088;6.572;2023-04-06T16:09:43;17.60;;;10.00;;
28074;SDS011;15385;51.088;6.572;2023-04-06T16:12:13;14.70;;;9.52;;
28074;SDS011;15385;51.088;6.572;2023-04-06T16:14:44;15.73;;;9.77;;
28074;SDS011;15385;51.088;6.572;2023-04-06T16:17:15;13.88;;;9.70;;
28074;SDS011;15385;51.088;6.572;2023-04-06T16:19:46;18.05;;;9.57;;
28074;SDS011;15385;51.088;6.572;2023-04-06T16:22:17;13.60;;;9.65;;
28074;SDS011;15385;51.088;6.572;2023-04-06T16:24:47;13.98;;;9.32;;
28074;SDS011;15385;51.088;6.572;2023-04-06T16:27:18;15.15;;;10.45;;
28074;SDS011;15385;51.088;6.572;2023-04-06T16:32:19;16.20;;;9.97;;
28074;SDS011;15385;51.088;6.572;2023-04-06T16:34:50;15.40;;;9.95;;
28074;SDS011;15385;51.088;6.572;2023-04-06T16:37:21;15.95;;;9.98;;
28074;SDS011;15385;51.088;6.572;2023-04-06T16:39:52;16.45;;;10.05;;
28074;SDS011;15385;51.088;6.572;2023-04-06T16:42:22;14.23;;;9.27;;
28074;SDS011;15385;51.088;6.572;2023-04-06T16:44:53;14.88;;;9.80;;
28074;SDS011;15385;51.088;6.572;2023-04-06T16:47:24;13.40;;;9.20;;
28074;SDS011;15385;51.088;6.572;2023-04-06T16:49:54;15.30;;;8.55;;
28074;SDS011;15385;51.088;6.572;2023-04-06T16:52:25;12.93;;;8.07;;
28074;SDS011;15385;51.088;6.572;2023-04-06T16:54:56;13.90;;;9.10;;
28074;SDS011;15385;51.088;6.572;2023-04-06T17:00:00;14.85;;;8.70;;
28074;SDS011;15385;51.088;6.572;2023-04-06T17:02:31;15.30;;;9.35;;
28074;SDS011;15385;51.088;6.572;2023-04-06T17:05:05;12.95;;;8.93;;
28074;SDS011;15385;51.088;6.572;2023-04-06T17:07:35;13.77;;;8.35;;
28074;SDS011;15385;51.088;6.572;2023-04-06T17:10:06;13.20;;;8.70;;
28074;SDS011;15385;51.088;6.572;2023-04-06T17:12:37;15.13;;;8.63;;
28074;SDS011;15385;51.088;6.572;2023-04-06T17:15:08;12.43;;;8.57;;
28074;SDS011;15385;51.088;6.572;2023-04-06T17:17:38;10.88;;;7.68;;
28074;SDS011;15385;51.088;6.572;2023-04-06T17:20:09;13.75;;;8.38;;